Time;durP1;ratioP1;P1;durP2;ratioP2;P2;SDS_P1;SDS_P2;PMS_P1;PMS_P2;Temp;Humidity;BMP_temperature;BMP_pressure;BME280_temperature;BME280_humidity;BME280_pressure;Samples;Min_cycle;Max_cycle;Signal;HPM_P1;HPM_P2
2023/10/05 00:02:08;;;;;;;5.47;3.50;;;11.40;99.90;;;-141.84;79.25;19929.69;5043885;28;20659;-60
2023/10/05 00:04:41;;;;;;;7.40;3.90;;;11.40;99.90;;;-141.84;79.22;19919.53;5043816;28;20271;-60
2023/10/05 00:07:18;;;;;;;5.57;3.83;;;11.30;99.90;;;-141.84;79.35;19903.25;5044122;28;20225;-60
2023/10/05 00:09:46;;;;;;;6.27;3.63;;;11.30;99.90;;;-141.84;79.86;19860.59;5044437;28;20228;-60
2023/10/05 00:12:20;;;;;;;6.03;3.70;;;11.30;99.90;;;-141.84;80.14;19858.56;5062383;28;20235;-60
2023/10/05 00:15:02;;;;;;;5.80;3.83;;;11.20;99.90;;;-141.84;80.01;19870.75;5056056;28;20213;-61
2023/10/05 00:17:32;;;;;;;7.57;3.70;;;11.20;99.90;;;-141.84;79.84;19915.47;5048231;28;20302;-61
2023/10/05 00:20:02;;;;;;;6.47;3.83;;;11.20;99.90;;;-141.84;80.09;19854.50;5043815;28;20237;-60
2023/10/05 00:22:31;;;;;;;5.43;3.63;;;11.20;99.90;;;-141.84;80.40;19860.59;5043604;28;20244;-60
2023/10/05 00:25:00;;;;;;;6.50;3.60;;;11.10;99.90;;;-141.84;80.36;19876.84;5035843;28;20233;-60
2023/10/05 00:27:29;;;;;;;4.77;3.90;;;11.10;99.90;;;-141.84;80.64;19880.91;5042736;28;20300;-60
2023/10/05 00:29:58;;;;;;;6.73;3.50;;;11.10;99.90;;;-141.84;80.67;19848.38;5043913;28;20283;-61
2023/10/05 00:32:35;;;;;;;5.63;3.97;;;11.10;99.90;;;-141.84;80.96;19858.56;5043431;28;20221;-62
2023/10/05 00:35:16;;;;;;;6.13;4.13;;;11.10;99.90;;;-141.84;80.60;19887.00;5036018;28;20281;-60
2023/10/05 00:37:45;;;;;;;5.00;3.67;;;11.10;99.90;;;-141.84;80.56;19874.81;5043450;28;20605;-60
2023/10/05 00:40:30;;;;;;;7.03;3.77;;;11.10;99.90;;;-141.84;80.77;19842.28;5043497;28;20316;-60
2023/10/05 00:43:04;;;;;;;12.13;4.70;;;11.10;99.90;;;-141.84;81.08;19846.34;5035250;28;20229;-61
2023/10/05 00:45:33;;;;;;;6.30;3.83;;;11.10;99.90;;;-141.84;81.42;19811.81;5043201;28;20306;-60
2023/10/05 00:48:12;;;;;;;6.23;3.97;;;11.10;99.90;;;-141.84;79.28;19889.03;5043759;28;20255;-61
2023/10/05 00:50:41;;;;;;;9.40;4.10;;;11.20;99.90;;;-141.84;79.40;19925.63;5042792;28;20249;-60
2023/10/05 00:53:11;;;;;;;5.30;4.00;;;11.20;99.90;;;-141.84;79.47;19878.88;5043186;28;20320;-62
2023/10/05 00:55:43;;;;;;;5.63;3.83;;;11.30;99.90;;;-141.84;79.01;19887.00;5042652;28;20725;-62
2023/10/05 00:58:15;;;;;;;6.60;4.10;;;11.30;99.90;;;-141.84;79.30;19897.16;5042886;28;20225;-61
2023/10/05 01:00:50;;;;;;;5.53;3.90;;;11.40;99.90;;;-141.84;77.40;19911.41;5042027;28;20233;-61
2023/10/05 01:03:23;;;;;;;7.00;4.00;;;11.40;99.90;;;-141.84;77.47;19921.56;5043113;28;20228;-60
2023/10/05 01:06:10;;;;;;;8.17;4.13;;;11.50;99.90;;;-141.84;77.44;19982.53;5043059;28;20228;-61
2023/10/05 01:08:49;;;;;;;6.00;3.93;;;11.50;99.90;;;-141.84;77.80;19933.75;5042940;28;20233;-60
2023/10/05 01:11:26;;;;;;;5.60;4.10;;;11.50;99.90;;;-141.84;77.21;19943.91;5042834;28;20229;-60
2023/10/05 01:14:00;;;;;;;5.50;3.37;;;11.50;99.90;;;-141.84;77.90;19931.72;5042824;28;20232;-60
2023/10/05 01:16:32;;;;;;;5.77;3.60;;;11.50;99.90;;;-141.84;77.86;19933.75;5042952;28;20224;-59
2023/10/05 01:19:07;;;;;;;7.03;3.87;;;11.50;99.90;;;-141.84;78.62;19895.13;5035085;28;20632;-60
2023/10/05 01:21:37;;;;;;;6.20;4.10;;;11.50;99.90;;;-141.84;78.22;19964.25;5043063;28;20292;-60
2023/10/05 01:24:09;;;;;;;7.97;4.03;;;11.50;99.90;;;-141.84;77.67;19962.19;5043220;28;20262;-61
2023/10/05 01:26:37;;;;;;;6.63;4.10;;;11.60;99.90;;;-141.84;75.84;19976.44;5032821;28;20226;-60
2023/10/05 01:29:06;;;;;;;6.60;4.10;;;11.70;99.90;;;-141.84;77.43;19933.75;5028951;28;20684;-60
2023/10/05 01:31:34;;;;;;;7.30;4.27;;;11.60;99.90;;;-141.84;77.74;19956.09;5042542;28;20260;-61
2023/10/05 01:34:03;;;;;;;8.53;4.20;;;11.70;99.90;;;-141.84;76.85;19990.66;5042586;28;20233;-60
2023/10/05 01:36:32;;;;;;;6.83;4.63;;;11.70;99.90;;;-141.84;76.03;19984.56;5041796;28;20213;-60
2023/10/05 01:39:08;;;;;;;6.87;4.50;;;11.70;99.90;;;-141.84;76.20;19998.78;5035254;28;20244;-60
2023/10/05 01:41:37;;;;;;;7.90;4.43;;;11.80;99.90;;;-141.84;76.94;19954.06;5042215;28;20320;-61
2023/10/05 01:44:08;;;;;;;8.97;4.93;;;11.70;99.90;;;-141.84;76.46;19972.38;5042882;28;20290;-60
2023/10/05 01:46:38;;;;;;;6.73;4.07;;;11.70;99.90;;;-141.84;76.05;19970.34;5031397;28;20225;-60
2023/10/05 01:49:07;;;;;;;6.03;4.47;;;11.70;99.90;;;-141.84;75.87;19984.56;5014609;28;20234;-60
2023/10/05 01:51:35;;;;;;;6.23;4.43;;;11.70;99.90;;;-141.84;76.33;19964.25;5022584;28;20211;-60
2023/10/05 01:54:11;;;;;;;5.93;3.90;;;11.70;99.90;;;-141.84;77.31;19919.53;5022706;28;20312;-60
2023/10/05 01:56:47;;;;;;;6.20;3.90;;;11.60;99.90;;;-141.84;77.62;19939.84;5022503;28;20320;-60
2023/10/05 01:59:20;;;;;;;6.93;4.83;;;11.50;99.90;;;-141.84;77.32;19939.84;5022328;28;20576;-60
2023/10/05 02:01:49;;;;;;;6.50;4.40;;;11.50;99.90;;;-141.84;78.06;19931.72;5022536;28;20233;-60
2023/10/05 02:04:17;;;;;;;9.07;4.27;;;11.50;99.90;;;-141.84;78.41;19909.34;5022403;28;20229;-60
2023/10/05 02:06:49;;;;;;;9.77;4.37;;;11.50;99.90;;;-141.84;78.02;19939.84;5014742;28;20312;-60
2023/10/05 02:09:19;;;;;;;5.80;4.00;;;11.50;99.90;;;-141.84;77.90;19939.84;5037107;28;20296;-60
2023/10/05 02:11:52;;;;;;;8.10;5.10;;;11.50;99.90;;;-141.84;77.11;19958.13;5041522;28;20295;-59
2023/10/05 02:14:21;;;;;;;5.93;3.87;;;11.50;99.90;;;-141.84;77.22;19956.09;5041984;28;20221;-60
2023/10/05 02:16:51;;;;;;;6.87;4.07;;;11.60;99.90;;;-141.84;76.23;19943.91;5034530;28;20221;-60
2023/10/05 02:19:20;;;;;;;8.00;4.33;;;11.60;99.90;;;-141.84;76.28;19978.47;5040349;28;20237;-60
2023/10/05 02:21:53;;;;;;;8.90;4.30;;;11.60;99.90;;;-141.84;76.97;19931.72;5041863;28;20727;-60
2023/10/05 02:24:25;;;;;;;8.35;4.22;;;11.60;99.90;;;-141.84;77.38;19978.47;5042537;28;20263;-61
2023/10/05 02:27:09;;;;;;;10.63;4.13;;;11.60;99.90;;;-141.84;78.22;19907.31;5033793;28;20300;-60
2023/10/05 02:29:42;;;;;;;7.17;4.00;;;11.40;99.90;;;-141.84;78.23;19899.19;5041799;28;20228;-60
2023/10/05 02:32:14;;;;;;;4.97;3.80;;;11.40;99.90;;;-141.84;77.48;19905.28;5042091;28;20283;-60
2023/10/05 02:34:44;;;;;;;6.33;3.70;;;11.40;99.90;;;-141.84;78.51;19891.06;5040227;28;20240;-59
2023/10/05 02:37:19;;;;;;;7.33;4.73;;;11.40;99.90;;;-141.84;78.48;19887.00;5042469;28;20324;-61
2023/10/05 02:39:48;;;;;;;7.17;4.20;;;11.40;99.90;;;-141.84;78.80;19919.53;5042188;28;20323;-60
2023/10/05 02:42:21;;;;;;;7.47;4.33;;;11.40;99.90;;;-141.84;77.90;19939.84;5036559;28;20674;-60
2023/10/05 02:44:53;;;;;;;7.90;3.97;;;11.40;99.90;;;-141.84;78.13;19933.75;4995036;28;20724;-60
2023/10/05 02:47:23;;;;;;;4.77;3.90;;;11.50;99.90;;;-141.84;77.51;19943.91;5002268;28;20722;-61
2023/10/05 02:49:52;;;;;;;8.80;4.53;;;11.50;99.90;;;-141.84;77.71;19927.66;5004298;28;20234;-60
2023/10/05 02:52:20;;;;;;;7.13;4.23;;;11.50;99.90;;;-141.84;77.55;19931.72;5005209;28;20230;-60
2023/10/05 02:54:49;;;;;;;5.83;3.90;;;11.60;99.90;;;-141.84;78.16;19921.56;4998257;28;20234;-60
2023/10/05 02:57:20;;;;;;;5.93;4.03;;;11.60;99.90;;;-141.84;78.44;19931.72;5005968;28;20214;-60
2023/10/05 02:59:50;;;;;;;7.10;4.00;;;11.60;99.90;;;-141.84;78.62;19895.13;5005990;28;20237;-60
2023/10/05 03:02:18;;;;;;;6.43;4.07;;;11.60;99.90;;;-141.84;78.30;19952.03;5005437;28;20226;-61
2023/10/05 03:04:48;;;;;;;8.30;4.60;;;11.60;99.90;;;-141.84;77.67;20000.81;4997790;28;20241;-61
2023/10/05 03:07:19;;;;;;;6.10;4.13;;;11.60;99.90;;;-141.84;77.81;19976.44;5005460;28;20234;-60
2023/10/05 03:09:49;;;;;;;6.27;4.17;;;11.70;99.90;;;-141.84;76.94;19937.81;5023623;28;20399;-60
2023/10/05 03:12:20;;;;;;;7.00;4.10;;;11.80;99.90;;;-141.84;77.23;19976.44;5025271;28;20234;-60
2023/10/05 03:14:51;;;;;;;8.77;4.20;;;11.80;99.90;;;-141.84;76.70;19986.59;5017684;28;20692;-61
2023/10/05 03:17:21;;;;;;;7.73;3.90;;;11.80;99.90;;;-141.84;76.67;19996.75;5024842;28;20287;-60
2023/10/05 03:19:51;;;;;;;7.53;4.17;;;11.90;99.90;;;-141.84;75.24;20045.53;5018998;28;20238;-60
2023/10/05 03:22:23;;;;;;;8.53;4.77;;;12.00;99.90;;;-141.84;74.97;20065.84;5005188;28;20250;-59
2023/10/05 03:24:53;;;;;;;8.07;4.00;;;12.00;99.90;;;-141.84;75.61;20039.44;4998315;28;20729;-61
2023/10/05 03:27:25;;;;;;;7.77;4.00;;;12.10;99.90;;;-141.84;75.03;20031.31;5019876;28;20226;-63
2023/10/05 03:30:00;;;;;;;9.13;4.50;;;12.10;99.90;;;-141.84;75.68;20002.84;5025469;28;20234;-60
2023/10/05 03:32:30;;;;;;;8.95;4.22;;;12.10;99.90;;;-141.84;75.06;20021.16;5024624;28;20728;-60
2023/10/05 03:34:59;;;;;;;9.88;4.70;;;12.10;99.90;;;-141.84;75.48;20000.81;5017367;28;20237;-61
2023/10/05 03:37:31;;;;;;;6.07;3.73;;;12.10;99.90;;;-141.84;76.21;19996.75;5024518;28;20226;-60
2023/10/05 03:40:08;;;;;;;9.70;4.30;;;12.10;99.90;;;-141.84;76.12;19984.56;5007277;28;20504;-60
2023/10/05 03:42:38;;;;;;;7.30;4.30;;;12.10;99.90;;;-141.84;76.15;20010.97;5004590;28;20207;-61
2023/10/05 03:45:09;;;;;;;7.87;3.87;;;12.10;99.90;;;-141.84;75.69;20043.50;4997883;28;20206;-60
2023/10/05 03:47:38;;;;;;;6.90;4.40;;;12.10;99.90;;;-141.84;74.24;20094.31;5042802;28;20229;-60
2023/10/05 03:50:09;;;;;;;8.00;4.20;;;12.20;99.90;;;-141.84;74.36;20037.41;5044336;28;20325;-60
2023/10/05 03:52:37;;;;;;;7.23;4.33;;;12.30;99.90;;;-141.84;73.92;20059.75;5044080;28;20716;-61
2023/10/05 03:55:10;;;;;;;11.70;5.15;;;12.30;99.90;;;-141.84;73.83;20071.97;5036782;28;20315;-61
2023/10/05 03:57:41;;;;;;;7.80;4.33;;;12.30;99.90;;;-141.84;74.23;20084.16;5044039;28;20578;-61
2023/10/05 04:00:23;;;;;;;8.00;4.60;;;12.30;99.90;;;-141.84;74.19;20069.94;5044384;28;20243;-60
2023/10/05 04:02:52;;;;;;;7.83;4.43;;;12.30;99.90;;;-141.84;74.84;20029.28;5036552;28;20363;-61
2023/10/05 04:05:22;;;;;;;7.63;4.60;;;12.30;99.90;;;-141.84;74.38;20065.84;5043904;28;20233;-60
2023/10/05 04:07:52;;;;;;;8.27;4.63;;;12.30;99.90;;;-141.84;74.06;20078.06;5043698;28;20234;-60
2023/10/05 04:10:34;;;;;;;8.57;4.53;;;12.30;99.90;;;-141.84;73.99;20100.41;5043696;28;20233;-61
2023/10/05 04:13:05;;;;;;;7.93;4.43;;;12.30;99.90;;;-141.84;74.31;20017.09;5035708;28;20233;-61
2023/10/05 04:15:33;;;;;;;9.03;4.37;;;12.30;99.90;;;-141.84;74.85;20039.44;5042161;28;20217;-63
2023/10/05 04:18:01;;;;;;;8.57;4.70;;;12.30;99.90;;;-141.84;74.11;20069.94;5024104;28;20319;-61
2023/10/05 04:20:29;;;;;;;8.20;4.40;;;12.30;99.90;;;-141.84;74.32;20061.78;5040967;28;20257;-61
2023/10/05 04:22:59;;;;;;;9.73;4.47;;;12.30;99.90;;;-141.84;75.01;20002.84;5028603;28;20225;-63
2023/10/05 04:25:27;;;;;;;10.17;4.30;;;12.20;99.90;;;-141.84;76.45;19976.44;5043540;28;20267;-63
2023/10/05 04:27:55;;;;;;;8.23;4.53;;;12.10;99.90;;;-141.84;75.38;19992.69;5043068;28;20229;-60
2023/10/05 04:30:25;;;;;;;10.47;5.20;;;12.20;99.90;;;-141.84;76.60;20013.00;5043912;28;20707;-60
2023/10/05 04:32:53;;;;;;;7.93;4.10;;;12.00;99.90;;;-141.84;76.04;20045.53;5035148;28;20248;-60
2023/10/05 04:35:26;;;;;;;9.50;4.97;;;12.10;99.90;;;-141.84;76.43;20029.28;5032853;28;20225;-61
2023/10/05 04:37:56;;;;;;;9.03;4.67;;;12.00;99.90;;;-141.84;76.37;20000.81;5023445;28;20605;-60
2023/10/05 04:40:25;;;;;;;9.37;5.03;;;12.10;99.90;;;-141.84;76.18;20002.84;5026534;28;20225;-61
2023/10/05 04:42:58;;;;;;;7.73;4.57;;;12.10;99.90;;;-141.84;76.72;19980.50;5036690;28;20217;-60
2023/10/05 04:45:28;;;;;;;7.77;4.40;;;12.00;99.90;;;-141.84;76.95;19984.56;5043600;28;20202;-60
2023/10/05 04:47:58;;;;;;;8.80;4.70;;;12.00;99.90;;;-141.84;76.22;19996.75;5043621;28;20278;-61
2023/10/05 04:50:27;;;;;;;8.30;4.40;;;12.10;99.90;;;-141.84;75.69;20057.72;5043256;28;20264;-60
2023/10/05 04:52:58;;;;;;;10.20;4.17;;;12.20;99.90;;;-141.84;75.39;20008.94;5034914;28;20228;-61
2023/10/05 04:55:31;;;;;;;8.60;5.23;;;12.20;99.90;;;-141.84;75.78;20000.81;5043028;28;20248;-60
2023/10/05 05:01:15;;;;;;;8.73;4.97;;;12.20;99.90;;;-141.84;76.21;20029.28;5103432;27;20604;-61
2023/10/05 05:03:55;;;;;;;9.17;4.63;;;12.10;99.90;;;-141.84;77.08;20029.28;5039764;28;20237;-60
2023/10/05 05:06:25;;;;;;;8.25;4.40;;;12.10;99.90;;;-141.84;75.75;20057.72;5040112;28;20259;-60
2023/10/05 05:08:54;;;;;;;9.10;4.50;;;12.10;99.90;;;-141.84;76.11;19982.53;5043047;28;20254;-60
2023/10/05 05:11:22;;;;;;;9.30;4.68;;;12.10;99.90;;;-141.84;75.80;20013.00;5059856;28;20263;-60
2023/10/05 05:13:51;;;;;;;9.30;4.80;;;12.10;99.90;;;-141.84;76.14;19994.72;5059558;28;20287;-60
2023/10/05 05:16:20;;;;;;;9.88;4.78;;;12.10;99.90;;;-141.84;75.75;20047.56;5059283;28;20711;-61
2023/10/05 05:18:49;;;;;;;8.18;4.50;;;12.10;99.90;;;-141.84;76.47;19998.78;5051483;28;20361;-60
2023/10/05 05:21:17;;;;;;;9.70;5.03;;;12.10;99.90;;;-141.84;76.08;19986.59;5059924;28;20216;-61
2023/10/05 05:23:47;;;;;;;10.97;5.10;;;12.10;99.90;;;-141.84;75.61;20035.38;5079267;28;20263;-60
2023/10/05 05:26:15;;;;;;;7.60;4.60;;;12.10;99.90;;;-141.84;76.45;20004.88;5078909;28;20223;-60
2023/10/05 05:28:44;;;;;;;8.33;4.60;;;12.10;99.90;;;-141.84;76.92;20008.94;5077145;28;20285;-60
2023/10/05 05:31:16;;;;;;;7.57;4.40;;;12.20;99.90;;;-141.84;75.90;20027.25;5069529;28;20315;-61
2023/10/05 05:33:48;;;;;;;8.30;4.70;;;12.10;99.90;;;-141.84;75.93;20000.81;5058994;28;20233;-60
2023/10/05 05:36:16;;;;;;;9.33;5.10;;;12.10;99.90;;;-141.84;76.15;20023.19;5066207;28;20201;-60
2023/10/05 05:38:48;;;;;;;8.90;4.70;;;12.20;99.90;;;-141.84;76.05;20010.97;5074920;28;20706;-60
2023/10/05 05:41:19;;;;;;;9.60;4.80;;;12.20;99.90;;;-141.84;74.73;20100.41;5079040;28;20232;-59
2023/10/05 05:43:48;;;;;;;8.70;4.67;;;12.30;99.90;;;-141.84;74.21;20098.38;5079552;28;20235;-61
2023/10/05 05:46:17;;;;;;;8.73;4.45;;;12.40;99.90;;;-141.84;74.28;20092.28;5078699;28;20236;-60
2023/10/05 05:48:51;;;;;;;7.60;4.10;;;12.50;99.90;;;-141.84;74.36;20110.56;5072150;28;20239;-65
2023/10/05 05:51:23;;;;;;;7.97;4.60;;;12.50;99.90;;;-141.84;75.10;20096.34;5079896;28;20247;-60
2023/10/05 05:53:52;;;;;;;7.07;4.38;;;12.60;99.90;;;-141.84;73.96;20078.06;5079006;28;20227;-61
2023/10/05 05:56:28;;;;;;;9.95;4.97;;;12.60;99.90;;;-141.84;74.11;20110.56;5078608;28;20278;-61
2023/10/05 05:58:57;;;;;;;8.07;4.43;;;12.60;99.90;;;-141.84;73.54;20151.22;5070985;28;20327;-61
2023/10/05 06:01:26;;;;;;;10.75;4.80;;;12.70;99.90;;;-141.84;73.13;20118.69;5079243;28;20319;-61
2023/10/05 06:03:56;;;;;;;6.72;4.20;;;12.80;99.90;;;-141.84;73.16;20155.28;5078421;28;20228;-60
2023/10/05 06:06:24;;;;;;;10.67;4.30;;;12.80;99.90;;;-141.84;73.35;20165.44;5077550;28;20274;-62
2023/10/05 06:08:52;;;;;;;8.32;4.88;;;12.80;99.90;;;-141.84;72.45;20167.47;5071102;28;20631;-60
2023/10/05 06:11:21;;;;;;;8.25;4.57;;;12.90;99.90;;;-141.84;73.22;20181.72;5065686;28;20316;-60
2023/10/05 06:13:49;;;;;;;9.93;5.32;;;12.90;99.90;;;-141.84;72.92;20169.53;5064931;28;20266;-60
2023/10/05 06:16:17;;;;;;;9.85;4.18;;;13.00;99.90;;;-141.84;73.51;20167.47;5065204;28;20220;-61
2023/10/05 06:18:46;;;;;;;8.48;4.30;;;13.00;99.90;;;-141.84;73.08;20163.41;5038486;28;20704;-61
2023/10/05 06:21:16;;;;;;;8.73;4.50;;;13.10;99.90;;;-141.84;73.75;20145.13;5064940;28;20264;-61
2023/10/05 06:23:44;;;;;;;8.77;4.68;;;13.00;99.90;;;-141.84;74.13;20169.53;5064674;28;20303;-60
2023/10/05 06:26:12;;;;;;;10.65;4.75;;;13.00;99.90;;;-141.84;73.37;20183.75;5064243;28;20252;-60
2023/10/05 06:28:40;;;;;;;9.50;4.85;;;13.00;99.90;;;-141.84;73.13;20159.34;5046850;28;20225;-60
2023/10/05 06:31:12;;;;;;;12.77;5.07;;;12.90;99.90;;;-141.84;74.52;20122.78;5039152;28;20260;-61
2023/10/05 06:33:42;;;;;;;8.68;4.95;;;12.90;99.90;;;-141.84;75.05;20092.28;5063729;28;20614;-61
2023/10/05 06:36:10;;;;;;;8.88;4.53;;;12.80;99.90;;;-141.84;74.30;20155.28;5065201;28;20282;-59
2023/10/05 06:38:40;;;;;;;7.15;4.57;;;12.90;99.90;;;-141.84;74.51;20155.28;5064369;28;20655;-60
2023/10/05 06:41:08;;;;;;;9.63;4.53;;;12.90;99.90;;;-141.84;73.65;20145.13;5057568;28;20236;-60
2023/10/05 06:43:36;;;;;;;11.40;4.82;;;13.00;99.90;;;-141.84;73.60;20155.28;5064663;28;20674;-60
2023/10/05 06:46:14;;;;;;;8.50;4.72;;;13.10;99.90;;;-141.84;72.90;20212.19;5064525;28;20232;-62
2023/10/05 06:48:43;;;;;;;8.80;4.88;;;13.20;99.90;;;-141.84;73.01;20208.13;5063901;28;20252;-61
2023/10/05 06:51:13;;;;;;;9.82;5.22;;;13.30;99.90;;;-141.84;71.44;20232.53;5061535;28;20204;-61
2023/10/05 06:53:43;;;;;;;8.13;4.43;;;13.40;99.90;;;-141.84;71.21;20275.22;5064270;28;20230;-60
2023/10/05 06:56:12;;;;;;;8.77;4.30;;;13.50;99.90;;;-141.84;70.85;20305.69;5062472;28;20231;-60
2023/10/05 06:58:41;;;;;;;7.22;4.45;;;13.60;99.90;;;-141.84;71.62;20252.84;5062511;28;20217;-60
2023/10/05 07:01:10;;;;;;;9.23;4.40;;;13.60;99.90;;;-141.84;71.24;20291.47;5056702;28;20232;-60
2023/10/05 07:03:38;;;;;;;8.20;4.63;;;13.60;99.90;;;-141.84;71.50;20273.19;5063011;28;20211;-60
2023/10/05 07:06:07;;;;;;;10.63;4.80;;;13.70;99.90;;;-141.84;71.88;20265.03;5064248;28;20208;-60
2023/10/05 07:08:35;;;;;;;11.23;4.90;;;13.70;99.90;;;-141.84;71.68;20277.25;5063616;28;20259;-62
2023/10/05 07:11:06;;;;;;;7.88;4.70;;;13.70;99.90;;;-141.84;70.69;20315.88;5055544;28;20293;-59
2023/10/05 07:13:35;;;;;;;8.93;4.10;;;13.70;99.90;;;-141.84;70.69;20299.59;5062986;28;20269;-60
2023/10/05 07:16:05;;;;;;;9.85;4.22;;;13.70;99.90;;;-141.84;70.76;20281.31;5063170;28;20228;-60
2023/10/05 07:18:34;;;;;;;8.95;4.10;;;13.70;99.90;;;-141.84;71.57;20244.72;5063717;28;20767;-59
2023/10/05 07:21:04;;;;;;;11.67;4.50;;;13.60;99.90;;;-141.84;71.34;20248.78;5056293;28;20225;-58
2023/10/05 07:23:33;;;;;;;7.82;4.30;;;13.60;99.90;;;-141.84;71.15;20279.28;5056248;28;20272;-59
2023/10/05 07:26:01;;;;;;;9.10;4.20;;;13.70;99.90;;;-141.84;70.62;20313.84;5042574;28;20316;-58
2023/10/05 07:28:31;;;;;;;8.15;4.15;;;13.80;99.90;;;-141.84;70.59;20344.31;5059319;28;20770;-60
2023/10/05 07:30:59;;;;;;;7.65;3.92;;;13.80;99.90;;;-141.84;70.06;20354.47;5056248;28;20319;-61
2023/10/05 07:33:28;;;;;;;8.90;3.75;;;13.90;99.90;;;-141.84;69.90;20311.78;5062713;28;20695;-60
2023/10/05 07:35:56;;;;;;;8.55;4.07;;;13.90;99.90;;;-141.84;70.89;20319.94;5064060;28;20207;-60
2023/10/05 07:38:27;;;;;;;8.45;3.83;;;13.90;99.90;;;-141.84;70.34;20301.63;5063026;28;20264;-60
2023/10/05 07:40:55;;;;;;;10.10;4.30;;;13.90;99.90;;;-141.84;71.52;20313.84;5054571;28;20232;-59
2023/10/05 07:43:27;;;;;;;7.38;3.85;;;13.80;99.90;;;-141.84;70.53;20350.41;5062912;28;20286;-64
2023/10/05 07:45:57;;;;;;;8.07;4.38;;;13.90;99.90;;;-141.84;69.56;20352.44;5059362;28;20762;-64
2023/10/05 07:48:25;;;;;;;7.70;3.90;;;14.00;99.90;;;-141.84;69.72;20378.88;5062811;28;20208;-64
2023/10/05 07:50:54;;;;;;;8.80;4.22;;;14.10;99.90;;;-141.84;69.01;20384.97;5054682;28;20219;-64
2023/10/05 07:53:22;;;;;;;8.10;3.75;;;14.20;99.90;;;-141.84;69.18;20401.22;5062497;28;20293;-63
2023/10/05 07:55:50;;;;;;;8.38;3.97;;;14.30;99.90;;;-141.84;67.73;20452.06;5060986;28;20244;-64
2023/10/05 07:58:19;;;;;;;7.32;3.45;;;14.50;99.90;;;-141.84;67.13;20482.53;5062446;28;20266;-63
2023/10/05 08:00:51;;;;;;;10.07;4.00;;;14.60;99.90;;;-141.84;67.11;20480.50;5053847;28;20299;-63
2023/10/05 08:03:20;;;;;;;7.50;3.70;;;14.60;99.90;;;-141.84;67.39;20439.84;5063316;28;20295;-61
2023/10/05 08:05:49;;;;;;;6.13;3.58;;;14.70;99.90;;;-141.84;67.83;20484.56;5062727;28;20219;-60
2023/10/05 08:08:17;;;;;;;7.47;3.97;;;14.70;99.90;;;-141.84;67.39;20492.72;5061613;28;20228;-61
2023/10/05 08:10:47;;;;;;;6.07;3.70;;;14.70;99.90;;;-141.84;67.47;20502.88;5054002;28;20698;-60
2023/10/05 08:13:16;;;;;;;6.57;3.50;;;14.70;99.90;;;-141.84;68.32;20456.13;5062597;28;20293;-61
2023/10/05 08:15:44;;;;;;;7.45;4.18;;;14.60;99.90;;;-141.84;68.45;20488.63;5062096;28;20305;-60
2023/10/05 08:18:12;;;;;;;9.65;3.80;;;14.60;99.90;;;-141.84;67.63;20502.88;5063097;28;20306;-61
2023/10/05 08:20:42;;;;;;;6.68;4.03;;;14.70;99.90;;;-141.84;67.53;20525.22;5049205;28;20679;-60
2023/10/05 08:23:11;;;;;;;8.15;3.83;;;14.70;99.90;;;-141.84;67.45;20531.31;5040112;28;20230;-60
2023/10/05 08:25:39;;;;;;;8.00;3.75;;;14.80;99.90;;;-141.84;67.62;20561.81;5041627;28;20705;-61
2023/10/05 08:28:09;;;;;;;7.15;4.55;;;14.80;99.90;;;-141.84;67.52;20500.84;5056358;28;20715;-60
2023/10/05 08:30:45;;;;;;;7.60;3.80;;;14.90;99.90;;;-141.84;66.12;20604.50;5062193;28;20204;-60
2023/10/05 08:33:19;;;;;;;8.57;4.35;;;15.00;99.90;;;-141.84;66.23;20620.78;5062320;28;20207;-60
2023/10/05 08:35:49;;;;;;;8.65;3.97;;;15.00;99.90;;;-141.84;65.68;20594.34;5062479;28;20453;-60
2023/10/05 08:38:17;;;;;;;6.82;3.63;;;15.20;99.90;;;-141.84;66.23;20594.34;5062475;28;20299;-60
2023/10/05 08:40:48;;;;;;;8.35;3.80;;;15.20;99.90;;;-141.84;65.65;20620.78;5054068;28;20320;-60
2023/10/05 08:43:17;;;;;;;9.93;4.50;;;15.30;99.90;;;-141.84;65.38;20624.84;5061683;28;20282;-60
2023/10/05 08:45:51;;;;;;;8.65;3.95;;;15.30;99.90;;;-141.84;66.04;20586.22;5062547;28;20308;-60
2023/10/05 08:48:28;;;;;;;7.75;3.58;;;15.30;99.90;;;-141.84;65.83;20639.06;5062994;28;20254;-60
2023/10/05 08:51:09;;;;;;;10.18;3.58;;;15.30;99.90;;;-141.84;66.18;20561.81;5055169;28;20683;-64
2023/10/05 08:53:42;;;;;;;6.70;3.58;;;15.30;99.90;;;-141.84;65.25;20628.91;5061819;28;20231;-63
2023/10/05 08:56:14;;;;;;;6.63;3.65;;;15.40;99.90;;;-141.84;65.21;20659.38;5061996;28;20239;-61
2023/10/05 08:58:45;;;;;;;6.72;3.78;;;15.40;99.90;;;-141.84;64.89;20663.47;5061412;28;20239;-62
2023/10/05 09:01:26;;;;;;;6.15;3.42;;;15.50;99.90;;;-141.84;63.61;20732.56;5062151;28;20225;-62
2023/10/05 09:04:01;;;;;;;7.13;4.00;;;15.70;99.90;;;-141.84;64.13;20720.38;5060779;28;20790;-61
2023/10/05 09:06:31;;;;;;;6.80;3.30;;;15.70;99.90;;;-141.84;63.42;20720.38;5061682;28;20200;-59
2023/10/05 09:09:13;;;;;;;7.78;3.40;;;15.90;99.90;;;-141.84;62.61;20769.16;5054584;28;20284;-58
2023/10/05 09:11:43;;;;;;;5.72;3.38;;;15.90;99.90;;;-141.84;63.09;20744.78;5059626;28;20622;-60
2023/10/05 09:14:20;;;;;;;5.65;3.63;;;15.90;99.90;;;-141.84;63.87;20712.25;5061584;28;20220;-60
2023/10/05 09:16:55;;;;;;;7.25;3.50;;;15.90;99.90;;;-141.84;62.32;20744.78;5051841;28;20228;-67
2023/10/05 09:19:29;;;;;;;8.40;3.50;;;16.10;99.90;;;-141.84;61.50;20838.28;5061925;28;20752;-65
2023/10/05 09:22:12;;;;;;;5.72;3.92;;;16.30;99.90;;;-141.84;61.67;20809.81;5061295;28;20289;-62
2023/10/05 09:24:43;;;;;;;6.80;3.60;;;16.40;99.90;;;-141.84;61.54;20866.75;5061717;28;20606;-60
2023/10/05 09:27:16;;;;;;;6.40;3.40;;;16.40;99.90;;;-141.84;61.81;20848.44;5058839;28;20213;-62
2023/10/05 09:29:45;;;;;;;7.85;3.40;;;16.40;99.90;;;-141.84;62.58;20832.19;5059526;28;20263;-62
2023/10/05 09:32:25;;;;;;;7.22;3.60;;;16.30;99.90;;;-141.84;61.62;20866.75;5061346;28;20235;-62
2023/10/05 09:34:56;;;;;;;9.13;3.42;;;16.40;99.90;;;-141.84;61.81;20891.13;5044432;28;20277;-64
2023/10/05 09:37:29;;;;;;;6.85;3.08;;;16.50;99.90;;;-141.84;61.00;20883.00;5061486;28;20228;-63
2023/10/05 09:40:00;;;;;;;7.72;3.50;;;16.60;99.90;;;-141.84;61.99;20885.03;5061623;28;20241;-62
2023/10/05 09:42:35;;;;;;;9.18;3.72;;;16.50;99.90;;;-141.84;60.96;20923.66;5061224;28;20229;-62
2023/10/05 09:45:09;;;;;;;6.95;3.67;;;16.60;99.90;;;-141.84;61.74;20923.66;5053874;28;20269;-61
2023/10/05 09:47:40;;;;;;;8.30;3.20;;;16.60;99.90;;;-141.84;61.45;20874.88;5064908;28;20230;-62
2023/10/05 09:50:12;;;;;;;7.03;2.90;;;16.60;99.90;;;-141.84;61.22;20899.28;5064645;28;20259;-60
2023/10/05 09:52:45;;;;;;;5.43;3.35;;;16.60;99.90;;;-141.84;61.35;20905.38;5064754;28;20224;-60
2023/10/05 09:55:17;;;;;;;6.32;3.50;;;16.70;99.90;;;-141.84;61.06;20872.84;5064971;28;20727;-61
2023/10/05 09:57:51;;;;;;;6.63;3.45;;;16.70;99.90;;;-141.84;61.26;20887.06;5064664;28;20248;-64
2023/10/05 10:00:30;;;;;;;7.05;3.53;;;16.70;99.90;;;-141.84;61.67;20858.59;5064730;28;20327;-63
2023/10/05 10:03:01;;;;;;;6.88;3.20;;;16.70;99.90;;;-141.84;61.66;20856.56;5057021;28;20247;-64
2023/10/05 10:05:36;;;;;;;6.18;3.53;;;16.70;99.90;;;-141.84;62.28;20885.03;5060871;28;20324;-63
2023/10/05 10:08:14;;;;;;;8.40;3.45;;;16.60;99.90;;;-141.84;63.09;20822.03;5064401;28;20316;-63
2023/10/05 10:11:00;;;;;;;8.85;4.15;;;16.60;99.90;;;-141.84;62.88;20876.91;5064113;28;20313;-63
2023/10/05 10:13:37;;;;;;;4.00;2.90;;;16.70;99.90;;;-141.84;61.96;20854.53;5064319;28;20225;-65
2023/10/05 10:16:27;;;;;;;6.03;3.22;;;16.60;99.90;;;-141.84;62.27;20854.53;5064420;28;20312;-62
2023/10/05 10:19:04;;;;;;;6.88;3.00;;;16.70;99.90;;;-141.84;61.53;20854.53;5054380;28;20287;-63
2023/10/05 10:21:41;;;;;;;6.78;3.10;;;16.70;99.90;;;-141.84;62.51;20830.16;5064977;28;20208;-63
2023/10/05 10:24:14;;;;;;;8.02;3.25;;;16.50;99.90;;;-141.84;63.57;20769.16;5065018;28;20239;-61
2023/10/05 10:26:45;;;;;;;6.05;3.25;;;16.50;99.90;;;-141.84;62.64;20846.41;5063542;28;20540;-60